Time;durP1;ratioP1;P1;durP2;ratioP2;P2;SDS_P1;SDS_P2;PMS_P1;PMS_P2;Temp;Humidity;BMP_temperature;BMP_pressure;BME280_temperature;BME280_humidity;BME280_pressure;Samples;Min_cycle;Max_cycle;Signal;HPM_P1;HPM_P2
2023/06/04 04:00:13;;;;;;;1.48;1.38;;;10.40;99.90;;;;;;6010329;23;21526;31
2023/06/04 04:02:41;;;;;;;1.23;1.23;;;10.40;99.90;;;;;;4904710;29;20234;-73
2023/06/04 04:05:09;;;;;;;2.05;1.75;;;10.50;99.90;;;;;;4913793;29;21138;-72
2023/06/04 04:07:35;;;;;;;1.38;1.38;;;10.50;99.90;;;;;;4913110;29;20238;-73
2023/06/04 04:10:02;;;;;;;2.70;2.60;;;10.60;99.90;;;;;;4913839;29;20210;-72
2023/06/04 04:12:29;;;;;;;1.80;1.75;;;10.60;99.90;;;;;;4913705;29;20534;-73
2023/06/04 04:14:55;;;;;;;4.15;1.58;;;10.70;99.90;;;;;;4914405;29;20837;-73
2023/06/04 04:17:22;;;;;;;1.40;1.40;;;10.80;99.90;;;;;;4913303;29;20302;-73
2023/06/04 04:19:50;;;;;;;2.33;2.13;;;10.80;99.90;;;;;;4915174;29;20210;-73
2023/06/04 04:22:17;;;;;;;1.98;1.88;;;11.00;99.90;;;;;;4914215;29;20286;-73
2023/06/04 04:24:44;;;;;;;2.00;1.88;;;11.60;99.90;;;;;;4915762;29;20218;-73
2023/06/04 04:27:13;;;;;;;1.70;1.63;;;12.40;99.90;;;;;;4914013;29;20202;-73
2023/06/04 04:29:43;;;;;;;1.47;1.47;;;13.10;99.90;;;;;;4913082;29;20470;-73
2023/06/04 04:32:11;;;;;;;2.97;2.77;;;13.90;99.90;;;;;;4910346;29;20580;-73
2023/06/04 04:34:38;;;;;;;1.90;1.90;;;14.50;99.90;;;;;;4910159;29;21073;-73
2023/06/04 04:37:08;;;;;;;1.37;1.33;;;14.80;99.90;;;;;;4913717;29;21067;-74
2023/06/04 04:39:35;;;;;;;3.00;2.30;;;15.40;99.90;;;;;;4909773;29;20475;-74
2023/06/04 04:42:02;;;;;;;1.30;1.30;;;15.80;99.90;;;;;;4912504;29;20497;-73
2023/06/04 04:44:29;;;;;;;1.60;1.60;;;16.10;99.90;;;;;;4914372;29;20507;-73
2023/06/04 04:46:55;;;;;;;2.83;1.10;;;16.40;99.90;;;;;;4912035;29;20847;-74
2023/06/04 04:49:23;;;;;;;1.23;1.23;;;16.80;99.90;;;;;;4913955;29;20475;-73
2023/06/04 04:51:49;;;;;;;2.30;1.60;;;17.10;99.90;;;;;;4912934;29;20551;-73
2023/06/04 04:54:17;;;;;;;1.10;1.10;;;17.40;99.90;;;;;;4913976;29;20545;-74
2023/06/04 04:56:44;;;;;;;1.20;1.20;;;17.80;99.90;;;;;;4913023;29;20533;-74
2023/06/04 04:59:11;;;;;;;0.90;0.90;;;18.20;99.90;;;;;;4914464;29;20471;-73
2023/06/04 05:01:37;;;;;;;1.20;1.20;;;18.30;99.90;;;;;;4909891;29;20517;-73
2023/06/04 05:04:04;;;;;;;1.00;1.00;;;18.10;99.90;;;;;;4911403;29;20543;-73
2023/06/04 05:06:31;;;;;;;0.93;0.93;;;18.50;99.90;;;;;;4913141;29;20472;-73
2023/06/04 05:08:57;;;;;;;1.07;1.00;;;18.70;99.10;;;;;;4914269;29;20535;-73
2023/06/04 05:11:25;;;;;;;1.00;1.00;;;19.10;99.00;;;;;;4911469;29;20858;-74
2023/06/04 05:13:52;;;;;;;0.70;0.70;;;19.50;97.60;;;;;;4913451;29;20502;-73
2023/06/04 05:16:20;;;;;;;1.17;1.17;;;19.60;97.00;;;;;;4913022;29;20786;-74
2023/06/04 05:18:47;;;;;;;0.80;0.80;;;19.90;95.00;;;;;;4914202;29;20871;-73
2023/06/04 05:21:13;;;;;;;0.53;0.53;;;20.20;94.60;;;;;;4910993;29;20911;-72
2023/06/04 05:23:40;;;;;;;0.97;0.97;;;20.20;93.90;;;;;;4911451;29;20582;-73
2023/06/04 05:26:07;;;;;;;0.60;0.60;;;20.40;93.20;;;;;;4912218;29;20878;-74
2023/06/04 05:28:35;;;;;;;0.73;0.73;;;20.50;93.00;;;;;;4912343;29;20560;-73
2023/06/04 05:31:02;;;;;;;0.90;0.60;;;20.60;93.10;;;;;;4912775;29;21179;-73
2023/06/04 05:33:31;;;;;;;0.60;0.60;;;20.80;92.50;;;;;;4913718;29;20864;-73
2023/06/04 05:35:58;;;;;;;0.67;0.67;;;20.80;92.10;;;;;;4913926;29;20549;-74
2023/06/04 05:38:25;;;;;;;0.90;0.90;;;20.60;91.80;;;;;;4913546;29;21022;-73
2023/06/04 05:40:52;;;;;;;0.73;0.73;;;20.50;92.00;;;;;;4910977;29;20588;-73
2023/06/04 05:43:19;;;;;;;0.67;0.67;;;20.90;91.20;;;;;;4913420;29;20555;-73
2023/06/04 05:45:47;;;;;;;2.50;0.50;;;20.60;91.00;;;;;;4914167;29;20606;-73
2023/06/04 05:48:14;;;;;;;0.80;0.80;;;20.50;91.50;;;;;;4913265;29;21195;-73
2023/06/04 05:50:41;;;;;;;0.53;0.53;;;20.10;90.70;;;;;;4914426;29;20545;-73
2023/06/04 05:53:07;;;;;;;0.43;0.43;;;19.80;91.20;;;;;;4910967;29;20532;-72
2023/06/04 05:55:34;;;;;;;0.40;0.40;;;20.00;90.50;;;;;;4913221;29;21277;-74
2023/06/04 05:58:01;;;;;;;0.57;0.57;;;20.20;90.80;;;;;;4910455;29;20473;-72
2023/06/04 06:00:30;;;;;;;0.63;0.63;;;20.70;91.10;;;;;;4910150;29;20479;-73
2023/06/04 06:02:58;;;;;;;0.77;0.77;;;21.00;90.10;;;;;;4910644;29;20911;-73
2023/06/04 06:05:25;;;;;;;0.50;0.50;;;21.30;89.50;;;;;;4912944;29;20903;-74
2023/06/04 06:07:52;;;;;;;1.13;1.03;;;21.50;89.00;;;;;;4912647;29;20475;-73
2023/06/04 06:10:19;;;;;;;0.30;0.30;;;21.70;89.10;;;;;;4913389;29;20465;-73
2023/06/04 06:12:46;;;;;;;0.60;0.60;;;21.90;88.70;;;;;;4913705;29;20468;-73
2023/06/04 06:15:12;;;;;;;0.70;0.70;;;22.30;87.30;;;;;;4908680;29;20573;-73
2023/06/04 06:17:39;;;;;;;0.47;0.47;;;22.70;86.70;;;;;;4913118;29;20523;-73
2023/06/04 06:20:08;;;;;;;0.40;0.40;;;22.70;86.00;;;;;;4914035;29;20886;-73
2023/06/04 06:22:36;;;;;;;0.90;0.90;;;22.50;86.60;;;;;;4912358;29;20489;-74
2023/06/04 06:54:34;;;;;;;0.40;0.40;;;24.60;76.20;;;;;;5236344;23;20554;-75
2023/06/04 06:57:00;;;;;;;0.60;0.60;;;24.50;73.50;;;;;;4937753;29;20473;-75
2023/06/04 06:59:27;;;;;;;0.67;0.67;;;24.40;71.60;;;;;;4936162;28;20481;-73
2023/06/04 07:01:54;;;;;;;0.70;0.70;;;24.50;70.90;;;;;;4935589;29;20508;-73
2023/06/04 07:04:22;;;;;;;0.40;0.40;;;24.60;70.30;;;;;;4954722;29;20484;-72
2023/06/04 07:06:48;;;;;;;0.50;0.50;;;24.60;71.30;;;;;;4954553;28;21080;-72
2023/06/04 07:09:15;;;;;;;0.60;0.60;;;24.80;72.10;;;;;;4942288;29;20556;-74
2023/06/04 07:11:43;;;;;;;0.40;0.40;;;24.90;73.30;;;;;;4934988;29;20469;-73
2023/06/04 07:14:15;;;;;;;0.43;0.43;;;25.10;71.60;;;;;;4935023;29;20477;-73
2023/06/04 07:16:42;;;;;;;0.40;0.40;;;25.10;70.10;;;;;;4939646;29;20472;-73
2023/06/04 07:19:08;;;;;;;0.50;0.50;;;25.40;69.00;;;;;;4954228;29;20468;-73
2023/06/04 07:21:35;;;;;;;0.40;0.40;;;25.40;68.10;;;;;;4939030;29;20488;-75
2023/06/04 07:24:02;;;;;;;0.30;0.30;;;25.30;68.90;;;;;;4934241;29;20516;-74
2023/06/04 07:26:30;;;;;;;0.40;0.40;;;24.90;70.30;;;;;;4935559;29;20457;-73
2023/06/04 07:28:58;;;;;;;0.30;0.30;;;25.00;69.20;;;;;;4935130;29;20469;-73
2023/06/04 07:31:25;;;;;;;0.73;0.73;;;25.10;67.80;;;;;;4929820;29;20473;-73
2023/06/04 07:33:51;;;;;;;0.30;0.30;;;25.40;67.60;;;;;;4940763;29;20580;-74
2023/06/04 07:36:18;;;;;;;0.43;0.43;;;25.20;67.20;;;;;;4935155;29;20493;-72
2023/06/04 07:38:45;;;;;;;0.40;0.40;;;24.60;67.30;;;;;;4934956;29;20569;-72
2023/06/04 07:41:11;;;;;;;0.50;0.50;;;24.50;68.50;;;;;;4934114;29;20473;-73
2023/06/04 07:43:38;;;;;;;0.50;0.50;;;24.90;69.50;;;;;;4934641;29;20556;-73
2023/06/04 07:46:07;;;;;;;0.43;0.43;;;25.00;68.70;;;;;;4934775;29;20462;-73
2023/06/04 07:48:33;;;;;;;0.50;0.50;;;25.30;67.80;;;;;;4934650;29;21118;-74
2023/06/04 07:51:02;;;;;;;0.40;0.40;;;25.70;66.50;;;;;;4933679;29;20473;-75
2023/06/04 07:53:29;;;;;;;0.40;0.40;;;25.50;66.60;;;;;;4934332;29;20858;-74
2023/06/04 07:55:56;;;;;;;0.70;0.60;;;25.80;65.30;;;;;;4933664;29;20564;-73
2023/06/04 07:58:22;;;;;;;0.40;0.40;;;25.60;59.20;;;;;;4933537;29;20576;-73
2023/06/04 08:00:50;;;;;;;0.80;0.60;;;24.30;63.50;;;;;;4933439;29;20545;-73
2023/06/04 08:03:20;;;;;;;0.20;0.20;;;24.00;63.80;;;;;;4932174;29;20489;-73
2023/06/04 08:05:47;;;;;;;0.60;0.60;;;24.30;63.40;;;;;;4933647;29;20474;-73
2023/06/04 08:08:14;;;;;;;0.40;0.40;;;24.00;64.70;;;;;;4933775;29;20499;-73
2023/06/04 08:10:42;;;;;;;0.43;0.43;;;24.20;64.40;;;;;;4930658;29;20478;-74
2023/06/04 08:13:09;;;;;;;0.70;0.70;;;23.90;61.50;;;;;;4932515;29;20893;-73
2023/06/04 08:15:36;;;;;;;0.47;0.47;;;24.10;63.90;;;;;;4929784;29;21011;-75
2023/06/04 08:18:03;;;;;;;0.47;0.47;;;24.40;65.30;;;;;;4937813;29;20572;-68
2023/06/04 08:20:31;;;;;;;0.67;0.40;;;24.70;64.90;;;;;;4933809;29;20466;-66
2023/06/04 08:22:58;;;;;;;0.40;0.40;;;24.30;64.60;;;;;;4941303;29;20458;-68
2023/06/04 08:25:24;;;;;;;0.70;0.70;;;24.60;64.60;;;;;;4943890;29;20465;-75
2023/06/04 08:27:51;;;;;;;0.33;0.33;;;24.10;63.50;;;;;;4953323;28;20469;-75
2023/06/04 08:30:18;;;;;;;0.40;0.40;;;23.70;64.00;;;;;;4931939;29;20532;-75
2023/06/04 08:32:44;;;;;;;0.80;0.80;;;23.90;64.70;;;;;;4933045;29;21022;-75
2023/06/04 08:35:11;;;;;;;0.50;0.50;;;24.10;64.60;;;;;;4933968;29;20493;-75
2023/06/04 08:37:47;;;;;;;0.30;0.30;;;24.30;62.60;;;;;;4933925;29;20878;-77
2023/06/04 08:40:14;;;;;;;0.30;0.30;;;24.00;63.10;;;;;;4927994;29;20465;-76
2023/06/04 08:42:44;;;;;;;0.47;0.47;;;23.70;63.60;;;;;;4933332;29;20470;-75
2023/06/04 08:45:12;;;;;;;0.30;0.30;;;23.80;63.80;;;;;;4934138;29;21204;-75
2023/06/04 08:47:45;;;;;;;0.47;0.47;;;24.10;61.50;;;;;;4933043;29;20469;-75
2023/06/04 08:50:13;;;;;;;0.60;0.60;;;24.30;63.20;;;;;;4933277;29;20478;-75
2023/06/04 08:52:41;;;;;;;0.40;0.40;;;24.00;64.80;;;;;;4933132;29;20465;-75
2023/06/04 08:55:11;;;;;;;0.53;0.53;;;24.00;64.40;;;;;;4933554;29;20581;-75
2023/06/04 08:57:39;;;;;;;0.40;0.40;;;23.90;64.10;;;;;;4933538;29;20536;-75
2023/06/04 09:00:08;;;;;;;0.50;0.50;;;23.70;63.80;;;;;;4932523;29;20469;-75
2023/06/04 09:02:36;;;;;;;0.50;0.50;;;23.50;63.60;;;;;;4932574;29;20478;-72
2023/06/04 09:05:05;;;;;;;0.57;0.57;;;23.40;63.80;;;;;;4933587;29;20922;-72
2023/06/04 09:07:34;;;;;;;0.30;0.30;;;23.40;63.20;;;;;;4933232;29;20484;-73
2023/06/04 09:10:03;;;;;;;0.50;0.50;;;23.60;61.70;;;;;;4932458;29;20469;-72
2023/06/04 09:12:31;;;;;;;0.37;0.37;;;23.70;62.60;;;;;;4931231;29;20472;-75
2023/06/04 09:14:58;;;;;;;0.50;0.50;;;23.70;63.00;;;;;;4931748;29;20514;-75
2023/06/04 09:17:25;;;;;;;0.50;0.50;;;23.60;62.20;;;;;;4932855;29;20472;-74
2023/06/04 09:19:52;;;;;;;0.30;0.30;;;23.40;62.50;;;;;;4933761;29;20476;-75
2023/06/04 09:22:19;;;;;;;0.40;0.40;;;23.40;62.00;;;;;;4934031;29;20549;-76
2023/06/04 09:24:49;;;;;;;0.47;0.47;;;23.00;62.40;;;;;;4932228;29;20497;-75
2023/06/04 09:27:22;;;;;;;1.53;0.97;;;23.00;63.70;;;;;;4933057;29;20468;-75
2023/06/04 09:29:52;;;;;;;0.70;0.70;;;22.80;63.00;;;;;;4933888;29;20669;-73
2023/06/04 09:32:23;;;;;;;0.53;0.53;;;22.70;63.50;;;;;;4932526;29;20478;-74
2023/06/04 09:34:50;;;;;;;0.70;0.57;;;22.50;63.70;;;;;;4930584;29;20554;-73
2023/06/04 09:37:17;;;;;;;1.70;0.50;;;22.60;64.90;;;;;;4933003;29;20473;-74
2023/06/04 09:39:44;;;;;;;3.80;0.67;;;22.70;64.10;;;;;;4928662;29;20476;-75
2023/06/04 09:42:11;;;;;;;0.40;0.40;;;22.80;64.10;;;;;;4933017;29;20641;-76
2023/06/04 09:44:45;;;;;;;0.57;0.57;;;22.70;63.60;;;;;;4931975;29;20990;-75
2023/06/04 09:47:12;;;;;;;0.47;0.47;;;22.60;63.30;;;;;;4932248;29;20515;-75
2023/06/04 09:49:42;;;;;;;0.40;0.40;;;22.50;63.40;;;;;;4933158;29;20477;-75
2023/06/04 09:52:08;;;;;;;0.30;0.30;;;22.30;64.50;;;;;;4933139;29;20503;-75
2023/06/04 09:54:37;;;;;;;2.17;0.87;;;22.20;63.50;;;;;;4932427;29;20496;-75
2023/06/04 09:57:05;;;;;;;0.40;0.40;;;22.20;63.70;;;;;;4932809;29;20547;-75
2023/06/04 09:59:36;;;;;;;0.50;0.50;;;22.20;63.40;;;;;;4933333;29;20499;-75
2023/06/04 10:02:06;;;;;;;0.60;0.60;;;22.10;64.40;;;;;;4932318;29;20472;-74
2023/06/04 10:04:36;;;;;;;4.80;0.90;;;22.10;64.90;;;;;;4932155;29;20527;-74
2023/06/04 10:07:05;;;;;;;0.53;0.53;;;22.20;66.40;;;;;;4930256;29;20969;-75
2023/06/04 10:09:33;;;;;;;0.40;0.40;;;22.10;64.30;;;;;;4934230;29;20876;-74
2023/06/04 10:12:01;;;;;;;0.23;0.23;;;22.10;65.70;;;;;;4933155;29;20912;-75
2023/06/04 10:14:36;;;;;;;0.40;0.40;;;22.00;66.50;;;;;;4931898;29;20872;-74
2023/06/04 10:17:04;;;;;;;0.50;0.50;;;21.90;67.10;;;;;;4931967;29;20517;-74
2023/06/04 10:19:32;;;;;;;0.67;0.67;;;21.80;65.70;;;;;;4932998;29;20477;-75
2023/06/04 10:21:59;;;;;;;0.37;0.37;;;21.80;65.50;;;;;;4933038;29;20466;-74
2023/06/04 10:24:26;;;;;;;0.83;0.83;;;21.80;66.80;;;;;;4933409;29;20511;-74
2023/06/04 10:26:56;;;;;;;0.70;0.70;;;21.80;67.00;;;;;;4936170;29;20462;-74
2023/06/04 10:29:24;;;;;;;0.37;0.37;;;21.80;66.70;;;;;;4936784;29;20480;-75
2023/06/04 10:31:55;;;;;;;0.73;0.73;;;21.60;65.80;;;;;;4937037;29;20473;-75
2023/06/04 10:34:23;;;;;;;0.60;0.60;;;21.80;66.80;;;;;;4934893;29;21246;-75
2023/06/04 10:36:49;;;;;;;0.40;0.40;;;22.00;65.80;;;;;;4936128;29;20489;-75
2023/06/04 10:39:27;;;;;;;0.43;0.43;;;22.00;64.90;;;;;;4934683;29;20465;-75
2023/06/04 10:42:01;;;;;;;0.37;0.37;;;22.00;65.40;;;;;;4932289;29;20903;-75
2023/06/04 10:44:28;;;;;;;0.50;0.50;;;21.90;65.50;;;;;;4917457;29;20491;-74
2023/06/04 10:46:54;;;;;;;0.43;0.43;;;21.90;66.20;;;;;;4916172;29;20498;-74
2023/06/04 10:49:29;;;;;;;0.93;0.93;;;22.10;65.30;;;;;;4917509;29;20477;-74
2023/06/04 10:51:57;;;;;;;0.57;0.57;;;22.00;64.50;;;;;;4933254;29;20569;-75
2023/06/04 10:54:25;;;;;;;0.40;0.40;;;22.00;64.20;;;;;;4941050;29;20502;-73
2023/06/04 10:56:53;;;;;;;1.80;0.50;;;21.90;64.60;;;;;;4936380;29;20570;-73
2023/06/04 10:59:20;;;;;;;0.63;0.63;;;21.90;65.30;;;;;;4937085;29;20556;-73
2023/06/04 11:01:47;;;;;;;0.37;0.37;;;21.80;65.50;;;;;;4935580;29;20469;-74
2023/06/04 11:04:24;;;;;;;0.40;0.40;;;22.00;65.00;;;;;;4935218;29;20554;-74
2023/06/04 11:07:03;;;;;;;0.50;0.50;;;21.90;64.60;;;;;;4935721;29;20985;-75
2023/06/04 11:09:30;;;;;;;0.53;0.53;;;22.00;65.10;;;;;;4934818;29;20469;-74
2023/06/04 11:11:58;;;;;;;0.50;0.50;;;22.00;65.10;;;;;;4931422;29;20463;-75
2023/06/04 11:14:25;;;;;;;0.40;0.40;;;22.00;65.50;;;;;;4935759;29;20515;-75
2023/06/04 11:16:51;;;;;;;0.30;0.30;;;22.10;65.20;;;;;;4936118;29;20486;-74
2023/06/04 11:19:18;;;;;;;0.50;0.50;;;22.20;66.50;;;;;;4936591;29;20931;-75
2023/06/04 11:21:46;;;;;;;1.10;0.37;;;22.20;64.90;;;;;;4935137;29;20645;-75
2023/06/04 11:24:17;;;;;;;0.43;0.43;;;22.20;65.40;;;;;;4935673;29;20507;-75
2023/06/04 11:26:45;;;;;;;0.73;0.73;;;22.40;65.70;;;;;;4935128;29;20553;-73
2023/06/04 11:29:15;;;;;;;1.33;0.60;;;22.30;65.10;;;;;;4935448;29;20469;-75
2023/06/04 11:31:43;;;;;;;0.30;0.30;;;22.30;65.10;;;;;;4934699;29;20509;-74
2023/06/04 11:34:11;;;;;;;0.93;0.70;;;22.20;65.10;;;;;;4937365;29;20530;-74
2023/06/04 11:36:38;;;;;;;0.40;0.40;;;22.20;64.30;;;;;;4937242;29;20486;-74
2023/06/04 11:39:06;;;;;;;0.40;0.40;;;22.10;63.30;;;;;;4931586;29;20490;-75
2023/06/04 11:41:35;;;;;;;0.33;0.33;;;22.10;64.40;;;;;;4936144;29;20482;-74
2023/06/04 11:44:04;;;;;;;0.33;0.33;;;22.20;64.70;;;;;;4942781;29;20523;-74
2023/06/04 11:46:31;;;;;;;0.60;0.60;;;22.30;63.90;;;;;;4946483;29;20518;-76
2023/06/04 11:48:58;;;;;;;0.40;0.40;;;22.40;64.20;;;;;;4945412;29;20544;-75
2023/06/04 11:51:25;;;;;;;0.30;0.30;;;22.40;65.30;;;;;;4946569;29;20479;-74
2023/06/04 11:53:52;;;;;;;0.67;0.67;;;22.40;63.30;;;;;;4948946;29;20553;-75
2023/06/04 11:56:25;;;;;;;0.70;0.67;;;22.40;63.30;;;;;;4949448;29;20494;-75
2023/06/04 11:58:55;;;;;;;0.53;0.53;;;22.40;63.20;;;;;;4948645;29;20467;-75
2023/06/04 12:01:22;;;;;;;0.57;0.57;;;22.40;64.00;;;;;;4947673;29;20550;-75
2023/06/04 12:03:49;;;;;;;0.30;0.30;;;22.40;64.30;;;;;;4950531;29;20553;-75
2023/06/04 12:06:21;;;;;;;0.33;0.33;;;22.60;64.40;;;;;;4947136;29;20477;-75
2023/06/04 12:08:49;;;;;;;0.40;0.40;;;22.70;63.60;;;;;;4947405;29;20464;-75
2023/06/04 12:11:27;;;;;;;0.60;0.60;;;22.60;62.90;;;;;;4937177;29;20504;-75
2023/06/04 12:13:56;;;;;;;0.43;0.43;;;22.70;63.90;;;;;;4935845;29;20554;-75
2023/06/04 12:16:23;;;;;;;0.53;0.53;;;22.60;63.40;;;;;;4932886;29;20503;-75
2023/06/04 12:18:50;;;;;;;0.50;0.50;;;22.50;63.30;;;;;;4935825;29;20469;-75
2023/06/04 12:21:19;;;;;;;0.40;0.40;;;22.60;63.50;;;;;;4935294;29;20481;-75
2023/06/04 12:23:46;;;;;;;0.50;0.50;;;22.70;62.40;;;;;;4939010;29;20485;-76
2023/06/04 12:26:28;;;;;;;0.90;0.90;;;22.90;63.60;;;;;;4935061;29;20762;-75
2023/06/04 12:29:01;;;;;;;0.67;0.67;;;22.90;62.20;;;;;;4934482;29;20480;-75
2023/06/04 12:31:31;;;;;;;0.70;0.70;;;23.10;63.20;;;;;;4931083;29;20485;-76
2023/06/04 12:34:01;;;;;;;0.50;0.50;;;23.00;61.60;;;;;;4931614;29;20500;-75
2023/06/04 12:36:29;;;;;;;0.30;0.30;;;23.00;62.30;;;;;;4915035;29;20500;-76
2023/06/04 12:39:00;;;;;;;0.50;0.50;;;23.00;63.40;;;;;;4918593;29;20563;-75
2023/06/04 12:41:26;;;;;;;2.23;0.67;;;22.90;63.80;;;;;;4926230;29;20479;-76
2023/06/04 12:43:54;;;;;;;0.60;0.60;;;23.00;64.40;;;;;;4938758;29;20524;-77
2023/06/04 12:46:22;;;;;;;0.50;0.50;;;22.80;63.70;;;;;;4955905;29;20454;-76
2023/06/04 12:48:50;;;;;;;0.30;0.30;;;22.90;64.70;;;;;;4954857;29;20482;-76
2023/06/04 12:51:16;;;;;;;0.60;0.60;;;22.90;64.80;;;;;;4952007;29;20471;-76
2023/06/04 12:53:43;;;;;;;0.57;0.47;;;23.00;64.50;;;;;;4955104;29;20487;-76
2023/06/04 12:56:10;;;;;;;1.60;0.50;;;22.80;63.80;;;;;;4954239;29;20507;-75
2023/06/04 12:58:37;;;;;;;0.70;0.70;;;22.90;64.20;;;;;;4955122;29;20468;-76
2023/06/04 13:01:04;;;;;;;0.47;0.47;;;23.00;64.80;;;;;;4941594;29;20533;-75
2023/06/04 13:03:32;;;;;;;0.90;0.90;;;23.00;65.10;;;;;;4935831;29;20487;-75
2023/06/04 13:05:59;;;;;;;2.10;0.93;;;22.90;65.00;;;;;;4936209;29;20472;-76
2023/06/04 13:08:26;;;;;;;0.47;0.47;;;23.00;65.40;;;;;;4930919;29;20531;-76
2023/06/04 13:10:53;;;;;;;0.60;0.60;;;23.00;64.60;;;;;;4937063;29;20946;-76
2023/06/04 13:13:21;;;;;;;0.70;0.70;;;22.90;64.40;;;;;;4950753;23;20498;-71
2023/06/04 13:15:48;;;;;;;4.67;0.60;;;23.00;65.20;;;;;;4946885;29;20623;-71
2023/06/04 13:18:15;;;;;;;1.07;0.70;;;23.10;66.00;;;;;;4932789;29;21003;-71
2023/06/04 13:20:43;;;;;;;0.50;0.50;;;23.10;65.20;;;;;;4933907;29;20471;-71
2023/06/04 13:23:11;;;;;;;0.47;0.47;;;23.10;64.50;;;;;;4943075;28;20503;-71
2023/06/04 13:25:38;;;;;;;1.67;0.60;;;23.00;64.80;;;;;;4928714;29;20471;-71
2023/06/04 13:28:05;;;;;;;0.60;0.60;;;23.10;65.40;;;;;;4914312;29;20525;-71
2023/06/04 13:30:32;;;;;;;0.60;0.60;;;23.10;65.10;;;;;;4914915;29;20514;-71
2023/06/04 13:32:59;;;;;;;0.50;0.50;;;23.00;65.10;;;;;;4918408;29;20575;-71
2023/06/04 13:35:25;;;;;;;0.60;0.60;;;23.10;65.80;;;;;;4933380;29;20465;-72
2023/06/04 13:37:53;;;;;;;1.30;0.93;;;23.10;65.20;;;;;;4933236;29;20518;-72
2023/06/04 13:40:20;;;;;;;0.30;0.30;;;23.20;65.90;;;;;;4928569;29;20889;-71
2023/06/04 13:42:47;;;;;;;0.70;0.70;;;23.00;64.60;;;;;;4935007;28;20477;-71
2023/06/04 13:45:14;;;;;;;0.50;0.50;;;22.90;65.20;;;;;;4933548;29;20463;-72
2023/06/04 13:47:40;;;;;;;0.60;0.60;;;23.10;66.40;;;;;;4913628;29;20879;-71
2023/06/04 13:50:07;;;;;;;1.10;1.10;;;23.20;66.00;;;;;;4914477;29;20484;-73
2023/06/04 13:52:34;;;;;;;1.07;0.70;;;23.20;65.30;;;;;;4917239;29;20567;-71
2023/06/04 13:55:02;;;;;;;1.37;0.60;;;23.20;65.70;;;;;;4936352;28;20996;-72
2023/06/04 13:57:29;;;;;;;0.60;0.60;;;23.30;65.10;;;;;;4914035;29;20492;-72
2023/06/04 13:59:55;;;;;;;0.93;0.93;;;23.30;65.00;;;;;;4932049;29;21011;-72
2023/06/04 14:02:22;;;;;;;0.60;0.60;;;23.40;65.60;;;;;;4921285;29;20491;-72
2023/06/04 14:04:50;;;;;;;2.10;0.80;;;23.30;64.80;;;;;;4939915;28;20495;-72
2023/06/04 14:07:17;;;;;;;0.57;0.57;;;23.20;63.90;;;;;;4936217;29;20467;-72
2023/06/04 14:09:44;;;;;;;1.30;0.60;;;23.20;65.20;;;;;;4935827;29;20556;-71
2023/06/04 14:12:13;;;;;;;1.70;0.60;;;23.10;65.20;;;;;;4934783;29;20557;-71
2023/06/04 14:14:39;;;;;;;0.20;0.20;;;23.20;65.40;;;;;;4939348;28;20507;-72
2023/06/04 14:17:07;;;;;;;0.70;0.60;;;23.40;66.00;;;;;;4929717;29;20511;-72
2023/06/04 14:19:34;;;;;;;0.50;0.50;;;23.50;66.80;;;;;;4928271;29;20539;-72
2023/06/04 14:22:01;;;;;;;0.90;0.90;;;23.50;65.90;;;;;;4933790;29;20566;-72
2023/06/04 14:24:27;;;;;;;0.50;0.50;;;23.60;65.70;;;;;;4934007;29;20490;-72
2023/06/04 14:26:54;;;;;;;0.73;0.73;;;23.70;67.20;;;;;;4936326;29;20933;-72
2023/06/04 14:29:22;;;;;;;0.80;0.80;;;23.80;65.40;;;;;;4935878;29;20475;-72
2023/06/04 14:31:49;;;;;;;0.70;0.70;;;23.70;65.60;;;;;;4935716;29;20519;-72
2023/06/04 14:34:15;;;;;;;1.33;0.93;;;23.80;65.10;;;;;;4933830;29;20496;-72
2023/06/04 14:36:42;;;;;;;0.83;0.83;;;23.90;64.60;;;;;;4941050;28;20507;-72
2023/06/04 14:39:09;;;;;;;0.67;0.67;;;23.90;66.50;;;;;;4935714;29;21124;-72
2023/06/04 14:41:36;;;;;;;0.77;0.77;;;24.00;65.50;;;;;;4936465;29;20527;-71
2023/06/04 14:44:02;;;;;;;0.70;0.70;;;24.00;65.80;;;;;;4931796;29;21025;-74
2023/06/04 14:46:30;;;;;;;0.60;0.60;;;23.90;65.40;;;;;;4928330;29;20468;-73
2023/06/04 14:48:57;;;;;;;0.80;0.80;;;24.10;65.70;;;;;;4934691;29;20474;-72
2023/06/04 14:51:24;;;;;;;0.50;0.50;;;24.20;65.30;;;;;;4935486;29;20499;-73
2023/06/04 14:53:50;;;;;;;1.20;1.20;;;24.20;65.20;;;;;;4936392;28;20554;-72
2023/06/04 14:56:18;;;;;;;0.63;0.63;;;24.10;65.10;;;;;;4933546;29;20464;-71
2023/06/04 14:58:45;;;;;;;0.73;0.70;;;24.10;65.10;;;;;;4921699;29;20583;-72
2023/06/04 15:01:11;;;;;;;0.73;0.73;;;24.30;64.80;;;;;;4934088;29;20835;-72
2023/06/04 15:03:41;;;;;;;0.70;0.60;;;24.40;64.90;;;;;;4931641;28;20493;-71
2023/06/04 15:06:08;;;;;;;0.80;0.80;;;24.50;65.20;;;;;;4935047;29;21161;-72
2023/06/04 15:08:34;;;;;;;0.50;0.50;;;24.50;65.30;;;;;;4916687;29;20466;-72
2023/06/04 15:11:01;;;;;;;0.50;0.50;;;24.70;62.90;;;;;;4922188;29;20497;-72
2023/06/04 15:13:28;;;;;;;2.40;1.53;;;24.60;64.80;;;;;;4920324;29;20512;-72
2023/06/04 15:15:54;;;;;;;0.70;0.70;;;24.70;64.30;;;;;;4917483;29;20954;-72
2023/06/04 15:18:21;;;;;;;2.83;0.90;;;24.70;64.20;;;;;;4915703;29;20494;-72
2023/06/04 15:20:49;;;;;;;0.97;0.97;;;24.90;65.00;;;;;;4923513;29;20636;-71
2023/06/04 15:23:17;;;;;;;1.00;1.00;;;24.80;63.50;;;;;;4929386;28;20914;-71
2023/06/04 15:25:44;;;;;;;0.80;0.80;;;24.70;63.50;;;;;;4925526;29;21053;-72
2023/06/04 15:28:11;;;;;;;1.13;1.13;;;24.60;63.30;;;;;;4933909;29;20524;-72
2023/06/04 15:30:37;;;;;;;1.17;0.67;;;24.60;63.40;;;;;;4930921;29;20461;-72
2023/06/04 15:33:04;;;;;;;0.53;0.53;;;24.40;62.50;;;;;;4935184;29;20476;-71
2023/06/04 15:35:31;;;;;;;0.77;0.77;;;24.40;63.80;;;;;;4931671;29;20501;-71
2023/06/04 15:37:59;;;;;;;2.50;0.93;;;24.30;63.70;;;;;;4935857;29;21000;-71
2023/06/04 15:40:25;;;;;;;0.60;0.60;;;24.30;63.60;;;;;;4928835;29;20540;-70
2023/06/04 15:42:52;;;;;;;0.60;0.60;;;24.30;64.20;;;;;;4933758;28;20481;-70
2023/06/04 15:45:21;;;;;;;1.23;0.87;;;24.30;63.00;;;;;;4935847;29;20540;-71
2023/06/04 15:47:47;;;;;;;0.87;0.87;;;24.20;63.50;;;;;;4930867;29;20563;-71
2023/06/04 15:50:14;;;;;;;0.90;0.90;;;24.10;64.30;;;;;;4935888;29;20568;-71
2023/06/04 15:52:40;;;;;;;0.60;0.60;;;23.90;65.30;;;;;;4940153;29;20975;-71
2023/06/04 15:55:09;;;;;;;1.03;1.03;;;24.00;65.40;;;;;;4938434;29;20503;-72
2023/06/04 15:57:35;;;;;;;0.80;0.80;;;24.20;64.80;;;;;;4933928;29;20492;-71
2023/06/04 16:00:03;;;;;;;0.80;0.80;;;24.30;64.30;;;;;;4930968;29;21049;-71
2023/06/04 16:02:29;;;;;;;0.60;0.60;;;24.30;64.70;;;;;;4933551;29;20475;-71
2023/06/04 16:04:56;;;;;;;2.80;0.70;;;23.90;64.50;;;;;;4933725;29;20492;-72
2023/06/04 16:07:23;;;;;;;0.70;0.70;;;24.00;65.20;;;;;;4934003;29;20870;-72
2023/06/04 16:09:50;;;;;;;0.90;0.90;;;24.00;65.00;;;;;;4934222;29;20468;-71
2023/06/04 16:12:18;;;;;;;1.70;1.00;;;24.20;65.00;;;;;;4933407;29;20763;-71
2023/06/04 16:14:44;;;;;;;0.97;0.97;;;24.20;63.90;;;;;;4928703;28;20559;-71
2023/06/04 16:17:11;;;;;;;1.00;1.00;;;24.20;64.00;;;;;;4933358;29;20475;-70
2023/06/04 16:19:48;;;;;;;0.67;0.67;;;24.20;63.80;;;;;;4935773;29;20489;-71
2023/06/04 16:22:14;;;;;;;0.60;0.60;;;24.30;64.10;;;;;;4937260;28;20968;-71
2023/06/04 16:24:41;;;;;;;0.50;0.50;;;24.40;63.70;;;;;;4933358;29;20491;-71
2023/06/04 16:27:08;;;;;;;0.63;0.63;;;24.20;63.50;;;;;;4933677;29;20469;-70
2023/06/04 16:29:36;;;;;;;1.07;1.07;;;24.00;64.80;;;;;;4924229;29;20601;-71
2023/06/04 16:32:03;;;;;;;0.57;0.57;;;24.10;64.20;;;;;;4927145;29;20563;-71
2023/06/04 16:34:29;;;;;;;1.00;1.00;;;24.00;65.50;;;;;;4934602;29;20573;-71
2023/06/04 16:36:56;;;;;;;0.90;0.80;;;24.00;65.60;;;;;;4928689;29;20481;-71
2023/06/04 16:39:23;;;;;;;0.63;0.63;;;24.00;64.10;;;;;;4934105;29;20559;-72
2023/06/04 16:41:51;;;;;;;0.53;0.53;;;24.00;63.90;;;;;;4934371;29;20543;-70
2023/06/04 16:44:17;;;;;;;0.73;0.73;;;24.10;64.20;;;;;;4934206;29;20528;-71
2023/06/04 16:46:45;;;;;;;0.97;0.97;;;24.10;64.30;;;;;;4933369;29;20468;-71
2023/06/04 16:49:12;;;;;;;0.80;0.80;;;24.10;63.40;;;;;;4933242;29;20499;-71
2023/06/04 16:51:40;;;;;;;0.70;0.70;;;24.10;63.90;;;;;;4929841;29;20961;-70
2023/06/04 16:54:07;;;;;;;0.73;0.73;;;23.80;64.50;;;;;;4933633;29;21028;-71
2023/06/04 16:56:34;;;;;;;0.90;0.90;;;23.90;64.90;;;;;;4934564;29;20472;-71
2023/06/04 16:59:00;;;;;;;1.30;1.30;;;23.90;63.50;;;;;;4934957;29;20539;-72
2023/06/04 17:01:27;;;;;;;2.30;0.73;;;23.90;63.40;;;;;;4926808;29;20472;-72
2023/06/04 17:03:55;;;;;;;0.63;0.63;;;23.50;64.40;;;;;;4933110;29;20488;-72
2023/06/04 17:06:22;;;;;;;1.17;0.70;;;23.50;65.10;;;;;;4933995;29;20484;-72
2023/06/04 17:08:49;;;;;;;1.20;1.10;;;23.60;65.70;;;;;;4927744;29;21171;-71
2023/06/04 17:11:15;;;;;;;1.13;1.13;;;23.60;65.80;;;;;;4917046;29;20471;-71
2023/06/04 17:13:42;;;;;;;0.60;0.60;;;23.70;65.90;;;;;;4919836;29;20498;-71
2023/06/04 17:16:09;;;;;;;0.70;0.70;;;23.70;65.30;;;;;;4933806;29;20951;-71
2023/06/04 17:18:38;;;;;;;0.97;0.47;;;23.70;65.00;;;;;;4928706;29;20521;-71